createdAt,value
2023-02-18T02:10:24.385Z,0.51
2023-02-18T02:11:24.409Z,0.51
2023-02-18T02:12:24.436Z,0.51
2023-02-18T02:13:24.456Z,0.51
2023-02-18T02:14:24.485Z,0.52
2023-02-18T02:15:24.528Z,0.51
2023-02-18T02:16:24.758Z,0.51
2023-02-18T02:17:24.573Z,0.51
2023-02-18T02:18:24.568Z,0.51
2023-02-18T02:19:24.596Z,0.50
2023-02-18T02:20:24.620Z,0.51
2023-02-18T02:21:24.650Z,0.52
2023-02-18T02:22:24.668Z,0.50
2023-02-18T02:23:24.697Z,0.52
2023-02-18T02:24:24.721Z,0.51
2023-02-18T02:25:24.756Z,0.51
2023-02-18T02:26:24.769Z,0.51
2023-02-18T02:27:24.795Z,0.51
2023-02-18T02:28:24.816Z,0.51
2023-02-18T02:29:24.847Z,0.50
2023-02-18T02:30:24.901Z,0.51
2023-02-18T02:31:25.011Z,0.51
2023-02-18T02:32:24.924Z,0.51
2023-02-18T02:33:24.955Z,0.51
2023-02-18T02:34:24.968Z,0.51
2023-02-18T02:35:24.993Z,0.51
2023-02-18T02:36:25.018Z,0.50
2023-02-18T02:37:25.045Z,0.51
2023-02-18T02:38:25.111Z,0.50
2023-02-18T02:39:25.160Z,0.51
2023-02-18T02:40:27.397Z,0.51
2023-02-18T02:41:25.191Z,0.52
2023-02-18T02:42:25.209Z,0.52
2023-02-18T02:43:25.237Z,0.51
2023-02-18T02:44:25.336Z,0.51
2023-02-18T02:45:25.330Z,0.51
2023-02-18T02:46:25.316Z,0.50
2023-02-18T02:47:25.334Z,0.51
2023-02-18T02:48:25.359Z,0.51
2023-02-18T02:49:25.413Z,0.51
2023-02-18T02:50:25.418Z,0.51
2023-02-18T02:51:25.445Z,0.51
2023-02-18T02:52:25.472Z,0.52
2023-02-18T02:53:25.500Z,0.52
2023-02-18T02:54:25.572Z,0.52
2023-02-18T02:55:25.560Z,0.51
2023-02-18T02:56:25.598Z,0.51
2023-02-18T02:57:25.626Z,0.51
2023-02-18T02:58:25.635Z,0.52
2023-02-18T02:59:25.748Z,0.52
2023-02-18T03:00:25.684Z,0.51
2023-02-18T03:01:25.726Z,0.51
2023-02-18T03:02:25.839Z,0.50
2023-02-18T03:03:25.899Z,0.51
2023-02-18T03:04:25.839Z,0.51
2023-02-18T03:05:25.846Z,0.52
2023-02-18T03:06:25.856Z,0.52
2023-02-18T03:07:25.888Z,0.52
2023-02-18T03:08:25.944Z,0.52
2023-02-18T03:09:25.958Z,0.52
2023-02-18T03:10:25.978Z,0.52
2023-02-18T03:11:26.015Z,0.51
2023-02-18T03:12:26.043Z,0.51
2023-02-18T03:13:26.061Z,0.52
2023-02-18T03:14:26.098Z,0.51
2023-02-18T03:38:27.798Z,0.51
2023-02-18T03:53:27.803Z,0.51
2023-02-18T04:11:27.818Z,0.51
2023-02-18T04:12:27.841Z,0.51
2023-02-18T04:13:27.882Z,0.51
2023-02-18T04:14:27.936Z,0.51
2023-02-18T04:15:27.955Z,0.50
2023-02-18T04:16:28.018Z,0.51
2023-02-18T04:17:28.028Z,0.51
2023-02-18T04:18:28.060Z,0.51
2023-02-18T04:19:28.094Z,0.51
2023-02-18T04:20:28.136Z,0.51
2023-02-18T04:21:28.170Z,0.51
2023-02-18T04:22:28.226Z,0.51
2023-02-18T04:23:28.252Z,0.50
2023-02-18T04:24:28.293Z,0.51
2023-02-18T04:25:28.327Z,0.51
2023-02-18T04:26:28.486Z,0.51
2023-02-18T04:27:28.371Z,0.51
2023-02-18T04:28:28.405Z,0.51
2023-02-18T04:29:28.446Z,0.51
2023-02-18T04:30:28.522Z,0.51
2023-02-18T04:31:28.571Z,0.51
2023-02-18T04:32:28.535Z,0.51
2023-02-18T04:33:28.584Z,0.51
2023-02-18T04:34:28.605Z,0.51
2023-02-18T04:35:28.647Z,0.51
2023-02-18T04:36:28.677Z,0.51
2023-02-18T04:37:28.711Z,0.51
2023-02-18T04:38:28.745Z,0.51
2023-02-18T04:39:28.865Z,0.51
2023-02-18T04:40:28.816Z,0.51
2023-02-18T04:41:29.811Z,0.51
2023-02-18T04:42:28.901Z,0.51
2023-02-18T04:43:28.927Z,0.51
2023-02-18T04:44:28.961Z,0.51
2023-02-18T04:45:28.994Z,0.50
2023-02-18T04:46:29.062Z,0.51
2023-02-18T04:47:29.070Z,0.50
2023-02-18T04:48:29.098Z,0.51
2023-02-18T04:49:29.134Z,0.51
2023-02-18T04:50:29.177Z,0.50
2023-02-18T04:51:29.206Z,0.50
2023-02-18T04:52:29.820Z,0.51
2023-02-18T04:53:29.261Z,0.51
2023-02-18T04:54:29.372Z,0.51
2023-02-18T04:55:29.355Z,0.51
2023-02-18T04:56:29.381Z,0.51
2023-02-18T04:57:29.409Z,0.51
2023-02-18T04:58:29.456Z,0.50
2023-02-18T04:59:30.390Z,0.52
2023-02-18T05:00:29.518Z,0.51
2023-02-18T05:01:29.667Z,0.51
2023-02-18T05:02:29.601Z,0.51
2023-02-18T05:03:29.638Z,0.51
2023-02-18T05:04:29.710Z,0.51
2023-02-18T05:05:29.717Z,0.51
2023-02-18T05:06:29.755Z,0.51
2023-02-18T05:07:29.799Z,0.51
2023-02-18T05:08:29.911Z,0.51
2023-02-18T05:09:29.936Z,0.51
2023-02-18T05:10:29.933Z,0.51
2023-02-18T05:11:29.961Z,0.51
2023-02-18T05:12:29.999Z,0.51
2023-02-18T05:13:30.044Z,0.51
2023-02-18T05:14:30.856Z,0.50
2023-02-18T05:15:30.374Z,0.51
2023-02-18T05:16:30.185Z,0.51
2023-02-18T05:17:30.230Z,0.50
2023-02-18T05:18:30.265Z,0.51
2023-02-18T05:19:30.303Z,0.51
2023-02-18T05:58:31.873Z,0.51
2023-02-18T06:01:32.000Z,0.51
2023-02-18T06:02:32.117Z,0.51
2023-02-18T06:03:32.087Z,0.51
2023-02-18T06:04:32.133Z,0.51
2023-02-18T06:05:32.254Z,0.50
2023-02-18T06:06:32.220Z,0.51
2023-02-18T06:07:32.258Z,0.51
2023-02-18T06:08:32.312Z,0.51
2023-02-18T06:09:32.343Z,0.51
2023-02-18T06:10:32.388Z,0.51
2023-02-18T06:11:32.436Z,0.51
2023-02-18T06:12:32.476Z,0.50
2023-02-18T06:13:32.518Z,0.51
2023-02-18T06:14:32.564Z,0.51
2023-02-18T06:15:32.604Z,0.50
2023-02-18T06:16:32.688Z,0.50
2023-02-18T06:17:32.701Z,0.51
2023-02-18T06:18:32.743Z,0.50
2023-02-18T06:19:32.781Z,0.51
2023-02-18T06:20:32.828Z,0.50
2023-02-18T06:21:32.954Z,0.51
2023-02-18T06:22:33.889Z,0.51
2023-02-18T06:23:32.977Z,0.51
2023-02-18T06:24:33.006Z,0.50
2023-02-18T06:26:33.985Z,0.50
2023-02-18T06:27:33.915Z,0.50
2023-02-18T06:28:33.913Z,0.50
2023-02-18T06:29:33.912Z,0.50
2023-02-18T06:30:33.927Z,0.50
2023-02-18T06:31:33.951Z,0.50
2023-02-18T06:32:33.885Z,0.50
2023-02-18T06:33:33.887Z,0.50
2023-02-18T06:34:33.878Z,0.51
2023-02-18T06:35:33.881Z,0.51
2023-02-18T06:36:33.876Z,0.51
2023-02-18T06:37:33.870Z,0.50
2023-02-18T06:38:33.871Z,0.51
2023-02-18T06:39:33.897Z,0.51
2023-02-18T06:40:33.874Z,0.50
2023-02-18T06:41:33.936Z,0.51
2023-02-18T06:42:33.870Z,0.51
2023-02-18T06:43:33.868Z,0.50
2023-02-18T06:44:36.352Z,0.51
2023-02-18T06:45:33.854Z,0.51
2023-02-18T06:46:33.917Z,0.51
2023-02-18T06:47:33.866Z,0.51
2023-02-18T06:48:33.878Z,0.51
2023-02-18T06:49:33.867Z,0.51
2023-02-18T06:50:33.935Z,0.51
2023-02-18T06:51:33.876Z,0.51
2023-02-18T06:52:33.874Z,0.51
2023-02-18T06:53:33.889Z,0.50
2023-02-18T06:54:33.887Z,0.51
2023-02-18T06:55:33.893Z,0.51
2023-02-18T06:56:33.946Z,0.51
2023-02-18T06:57:33.904Z,0.51
2023-02-18T06:58:33.911Z,0.52
2023-02-18T06:59:33.920Z,0.50
2023-02-18T07:00:33.974Z,0.51
2023-02-18T07:01:33.917Z,0.51
2023-02-18T07:02:33.938Z,0.51
2023-02-18T07:03:34.016Z,0.51
2023-02-18T07:04:33.939Z,0.51
2023-02-18T07:05:33.957Z,0.51
2023-02-18T07:06:33.986Z,0.51
2023-02-18T07:07:33.977Z,0.51
2023-02-18T07:08:33.992Z,0.50
2023-02-18T07:09:34.007Z,0.51
2023-02-18T07:10:33.996Z,0.51
2023-02-18T07:11:34.003Z,0.51
2023-02-18T07:12:34.006Z,0.51
2023-02-18T07:13:34.022Z,0.51
2023-02-18T07:14:34.027Z,0.51
2023-02-18T07:15:34.030Z,0.51
2023-02-18T07:16:34.085Z,0.51
2023-02-18T07:17:34.035Z,0.51
2023-02-18T07:18:34.032Z,0.50
2023-02-18T07:19:34.047Z,0.51
2023-02-18T07:20:34.048Z,0.50
2023-02-18T07:21:34.050Z,0.51
2023-02-18T07:22:34.055Z,0.50
2023-02-18T07:23:34.052Z,0.51
2023-02-18T07:24:34.065Z,0.50
2023-02-18T07:25:34.062Z,0.51
2023-02-18T07:26:34.128Z,0.51
2023-02-18T07:27:34.070Z,0.51
2023-02-18T07:28:34.074Z,0.52
2023-02-18T07:29:34.112Z,0.51
2023-02-18T07:30:34.201Z,0.50
2023-02-18T07:31:35.265Z,0.51
2023-02-18T07:32:34.258Z,0.50
2023-02-18T07:33:34.299Z,0.51
2023-02-18T07:34:34.345Z,0.51
2023-02-18T07:35:34.399Z,0.51
2023-02-18T07:36:34.444Z,0.52
2023-02-18T07:37:34.496Z,0.51
2023-02-18T07:38:34.560Z,0.51
2023-02-18T07:39:34.579Z,0.51
2023-02-18T07:40:34.618Z,0.52
2023-02-18T07:41:34.668Z,0.52
2023-02-18T07:42:34.711Z,0.51
2023-02-18T07:43:34.762Z,0.51
2023-02-18T07:44:35.126Z,0.52
2023-02-18T07:45:34.884Z,0.52
2023-02-18T07:46:34.900Z,0.51
2023-02-18T07:47:34.945Z,0.52
2023-02-18T07:48:34.988Z,0.51
2023-02-18T07:49:35.034Z,0.51
2023-02-18T07:50:35.103Z,0.51
2023-02-18T07:51:35.133Z,0.51
2023-02-18T07:52:35.167Z,0.51
2023-02-18T07:53:35.208Z,0.51
2023-02-18T07:54:35.251Z,0.51
2023-02-18T07:55:35.280Z,0.52
2023-02-18T07:56:35.338Z,0.51
2023-02-18T07:57:35.383Z,0.52
2023-02-18T07:58:35.410Z,0.51
2023-02-18T07:59:35.464Z,0.51
2023-02-18T08:00:35.505Z,0.51
2023-02-18T08:01:35.587Z,0.52
2023-02-18T08:02:35.584Z,0.51
2023-02-18T08:03:36.621Z,0.51
2023-02-18T08:04:35.669Z,0.51
2023-02-18T08:05:35.705Z,0.51
2023-02-18T08:06:35.772Z,0.51
2023-02-18T08:07:35.789Z,0.52
2023-02-18T08:08:37.189Z,0.51
2023-02-18T08:09:35.866Z,0.52
2023-02-18T08:10:35.905Z,0.51
2023-02-18T08:11:35.935Z,0.52
2023-02-18T08:12:35.981Z,0.51
2023-02-18T08:13:36.051Z,0.51
2023-02-18T08:14:36.076Z,0.51
2023-02-18T08:15:36.637Z,0.51
2023-02-18T08:16:36.234Z,0.51
2023-02-18T08:17:36.201Z,0.51
2023-02-18T08:18:36.238Z,0.51
2023-02-18T08:19:36.295Z,0.52
2023-02-18T08:20:36.418Z,0.51
2023-02-18T08:21:36.375Z,0.51
2023-02-18T08:22:36.421Z,0.51
2023-02-18T08:23:36.459Z,0.51
2023-02-18T08:24:36.514Z,0.51
2023-02-18T08:25:36.561Z,0.51
2023-02-18T08:26:36.606Z,0.51
2023-02-18T08:27:36.649Z,0.51
2023-02-18T08:28:36.701Z,0.51
2023-02-18T08:29:36.803Z,0.51
2023-02-18T08:30:36.885Z,0.51
2023-02-18T08:31:37.694Z,0.51
2023-02-18T08:32:36.867Z,0.52
2023-02-18T08:33:36.923Z,0.51
2023-02-18T08:34:36.969Z,0.51
2023-02-18T08:35:37.018Z,0.52
2023-02-18T08:36:37.064Z,0.51
2023-02-18T08:37:53.188Z,0.51
2023-02-18T08:38:38.086Z,0.51
2023-02-18T08:39:39.497Z,0.51
2023-02-18T08:40:37.284Z,0.51
2023-02-18T08:41:37.323Z,0.51
2023-02-18T08:42:37.353Z,0.51
2023-02-18T08:43:37.407Z,0.51
2023-02-18T08:44:37.518Z,0.51
2023-02-18T08:45:37.506Z,0.51
2023-02-18T08:46:37.570Z,0.51
2023-02-18T08:48:17.071Z,0.51
2023-02-18T08:48:39.223Z,0.51
2023-02-18T08:49:37.556Z,0.51
2023-02-18T08:50:37.565Z,0.51
2023-02-18T08:51:37.570Z,0.51
2023-02-18T08:52:37.567Z,0.52
2023-02-18T08:53:37.620Z,0.52
2023-02-18T08:54:37.549Z,0.52
2023-02-18T08:55:37.656Z,0.52
2023-02-18T08:56:37.539Z,0.51
2023-02-18T08:57:37.548Z,0.52
2023-02-18T08:58:37.620Z,0.51
2023-02-18T08:59:37.555Z,0.51
2023-02-18T09:00:37.544Z,0.51
2023-02-18T09:09:37.815Z,0.51
2023-02-18T09:10:37.842Z,0.51
2023-02-18T09:11:37.874Z,0.51
2023-02-18T09:12:37.911Z,0.51
2023-02-18T09:13:38.030Z,0.51
2023-02-18T09:14:38.023Z,0.51
2023-02-18T09:15:38.039Z,0.52
2023-02-18T09:16:38.010Z,0.52
2023-02-18T09:17:38.040Z,0.52
2023-02-18T09:18:38.071Z,0.52
2023-02-18T09:19:38.106Z,0.51
2023-02-18T09:20:38.140Z,0.52
2023-02-18T09:21:38.177Z,0.51
2023-02-18T09:22:38.186Z,0.51
2023-02-18T09:23:38.204Z,0.51
2023-02-18T09:24:38.225Z,0.52
2023-02-18T09:25:38.273Z,0.51
2023-02-18T09:26:38.292Z,0.51
2023-02-18T09:27:38.294Z,0.51
2023-02-18T09:28:38.325Z,0.51
2023-02-18T09:29:38.335Z,0.51
2023-02-18T09:30:38.526Z,0.51
2023-02-18T09:31:38.520Z,0.50
2023-02-18T09:32:38.445Z,0.50
2023-02-18T09:33:38.408Z,0.51
2023-02-18T09:34:38.414Z,0.51
2023-02-18T09:35:38.424Z,0.51
2023-02-18T09:36:38.442Z,0.51
2023-02-18T09:37:38.448Z,0.51
2023-02-18T09:38:38.450Z,0.51
2023-02-18T09:39:38.463Z,0.51
2023-02-18T09:40:38.468Z,0.51
2023-02-18T09:41:38.486Z,0.51
2023-02-18T09:42:38.553Z,0.51
2023-02-18T09:43:38.491Z,0.51
2023-02-18T09:44:38.500Z,0.51
2023-02-18T09:45:38.514Z,0.51
2023-02-18T09:46:38.501Z,0.51
2023-02-18T09:47:38.494Z,0.51
2023-02-18T09:48:38.495Z,0.51
2023-02-18T09:49:38.559Z,0.51
2023-02-18T09:50:38.487Z,0.51
2023-02-18T09:51:38.494Z,0.51
2023-02-18T09:52:38.504Z,0.52
2023-02-18T09:53:38.544Z,0.52
2023-02-18T09:54:38.602Z,0.51
2023-02-18T09:55:38.649Z,0.52
2023-02-18T09:56:40.536Z,0.51
2023-02-18T09:57:39.665Z,0.51
2023-02-18T09:58:38.754Z,0.52
2023-02-18T09:59:38.772Z,0.53
2023-02-18T10:00:38.803Z,0.52
2023-02-18T10:01:38.922Z,0.52
2023-02-18T10:02:38.836Z,0.53
2023-02-18T10:03:38.843Z,0.52
2023-02-18T10:04:38.873Z,0.53
2023-02-18T10:05:38.906Z,0.52
2023-02-18T10:06:38.932Z,0.52
2023-02-18T10:07:38.955Z,0.54
2023-02-18T10:08:38.990Z,0.52
2023-02-18T10:09:41.922Z,0.53
2023-02-18T10:10:39.025Z,0.53
2023-02-18T10:11:39.001Z,0.54
2023-02-18T10:12:38.973Z,0.52
2023-02-18T10:13:38.951Z,0.53
2023-02-18T10:14:38.936Z,0.51
2023-02-18T10:15:39.011Z,0.53
2023-02-18T10:16:38.914Z,0.53
2023-02-18T10:17:38.923Z,0.51
2023-02-18T10:18:38.860Z,0.53
2023-02-18T10:19:38.841Z,0.52
2023-02-18T10:20:38.825Z,0.53
2023-02-18T10:21:38.817Z,0.53
2023-02-18T10:22:38.789Z,0.51
2023-02-18T10:23:38.762Z,0.53
2023-02-18T10:24:38.751Z,0.52
2023-02-18T10:25:38.800Z,0.52
2023-02-18T10:26:39.186Z,0.53
2023-02-18T10:27:38.693Z,0.53
2023-02-18T10:28:38.675Z,0.52
2023-02-18T10:29:38.646Z,0.53
2023-02-18T10:30:38.630Z,0.52
2023-02-18T10:31:38.819Z,0.53
2023-02-18T10:32:38.585Z,0.52
2023-02-18T10:33:38.576Z,0.53
2023-02-18T10:34:38.559Z,0.53
2023-02-18T10:35:38.551Z,0.53
2023-02-18T10:36:38.520Z,0.53
2023-02-18T10:37:38.509Z,0.54
2023-02-18T10:38:38.493Z,0.53
2023-02-18T10:39:38.495Z,0.53
2023-02-18T10:40:38.464Z,0.54
2023-02-18T10:41:38.449Z,0.53
2023-02-18T10:42:38.430Z,0.53
2023-02-18T10:43:39.194Z,0.54
2023-02-18T10:44:38.398Z,0.54
2023-02-18T10:45:38.391Z,0.54
2023-02-18T10:46:38.400Z,0.53
2023-02-18T10:47:38.369Z,0.54
2023-02-18T10:48:38.344Z,0.54
2023-02-18T10:49:38.385Z,0.53
2023-02-18T10:50:38.320Z,0.53
2023-02-18T10:51:38.287Z,0.53
2023-02-18T10:52:38.272Z,0.54
2023-02-18T10:53:38.250Z,0.54
2023-02-18T10:54:38.246Z,0.54
2023-02-18T10:55:38.225Z,0.54
2023-02-18T10:56:38.225Z,0.53
2023-02-18T10:57:38.196Z,0.53
2023-02-18T10:58:38.191Z,0.53
2023-02-18T10:59:38.199Z,0.53
2023-02-18T11:00:38.233Z,0.53
2023-02-18T11:01:38.281Z,0.53
2023-02-18T11:02:38.701Z,0.54
2023-02-18T11:03:38.286Z,0.53
2023-02-18T11:04:38.335Z,0.53
2023-02-18T11:05:38.324Z,0.53
2023-02-18T11:06:38.327Z,0.53
2023-02-18T11:07:38.346Z,0.52
2023-02-18T11:08:38.343Z,0.51
2023-02-18T11:09:38.331Z,0.52
2023-02-18T11:10:38.322Z,0.53
2023-02-18T11:11:38.326Z,0.53
2023-02-18T11:12:38.326Z,0.53
2023-02-18T11:13:38.345Z,0.53
2023-02-18T11:14:38.330Z,0.53
2023-02-18T11:15:38.327Z,0.53
2023-02-18T11:16:38.415Z,0.53
2023-02-18T11:17:38.331Z,0.52
2023-02-18T11:18:38.333Z,0.54
2023-02-18T11:19:38.348Z,0.55
2023-02-18T11:20:38.334Z,0.54
2023-02-18T11:21:38.350Z,0.54
2023-02-18T11:22:38.329Z,0.53
2023-02-18T11:23:38.340Z,0.54
2023-02-18T11:24:38.333Z,0.54
2023-02-18T11:25:38.334Z,0.55
2023-02-18T11:26:38.347Z,0.54
2023-02-18T11:27:38.336Z,0.53
2023-02-18T11:28:38.326Z,0.54
2023-02-18T11:29:38.406Z,0.53
2023-02-18T11:30:38.356Z,0.53
2023-02-18T11:31:38.375Z,0.53
2023-02-18T11:32:38.300Z,0.53
2023-02-18T11:33:38.327Z,0.53
2023-02-18T11:34:39.197Z,0.53
2023-02-18T11:35:38.245Z,0.53
2023-02-18T11:36:38.205Z,0.52
2023-02-18T11:37:38.257Z,0.54
2023-02-18T11:38:38.188Z,0.51
2023-02-18T11:39:38.166Z,0.52
2023-02-18T11:40:38.163Z,0.53
2023-02-18T11:41:38.154Z,0.52
2023-02-18T11:42:38.126Z,0.54
2023-02-18T11:43:38.112Z,0.53
2023-02-18T11:44:38.086Z,0.53
2023-02-18T11:45:38.085Z,0.52
2023-02-18T11:46:38.080Z,0.52
2023-02-18T11:47:38.066Z,0.53
2023-02-18T11:48:38.018Z,0.54
2023-02-18T11:49:37.989Z,0.53
2023-02-18T11:50:37.970Z,0.52
2023-02-18T11:51:37.962Z,0.53
2023-02-18T11:52:37.951Z,0.55
2023-02-18T11:53:37.929Z,0.55
2023-02-18T11:54:37.914Z,0.53
2023-02-18T11:55:37.903Z,0.53
2023-02-18T11:56:37.887Z,0.53
2023-02-18T11:57:37.882Z,0.54
2023-02-18T11:58:37.922Z,0.54
2023-02-18T11:59:37.890Z,0.52
2023-02-18T12:00:37.849Z,0.54
2023-02-18T12:01:37.809Z,0.54
2023-02-18T12:02:37.805Z,0.53
2023-02-18T12:03:37.788Z,0.53
2023-02-18T12:16:38.298Z,0.52
2023-02-18T12:19:37.897Z,0.53
2023-02-18T12:20:37.830Z,0.52
2023-02-18T12:21:37.861Z,0.53
2023-02-18T12:22:37.913Z,0.52
2023-02-18T12:23:37.906Z,0.52
2023-02-18T12:24:37.910Z,0.52
2023-02-18T12:25:37.917Z,0.53
2023-02-18T12:26:37.925Z,0.52
2023-02-18T12:27:37.940Z,0.52
2023-02-18T12:28:37.924Z,0.52
2023-02-18T12:29:37.924Z,0.52
2023-02-18T12:30:37.916Z,0.53
2023-02-18T12:31:37.991Z,0.53
2023-02-18T12:32:37.918Z,0.52
2023-02-18T12:33:37.910Z,0.52
2023-02-18T12:34:37.917Z,0.53
2023-02-18T12:35:37.899Z,0.52
2023-02-18T12:36:37.887Z,0.53
2023-02-18T12:37:37.978Z,0.53
2023-02-18T12:38:37.922Z,0.52
2023-02-18T12:39:37.916Z,0.52
2023-02-18T12:40:37.924Z,0.53
2023-02-18T12:41:37.936Z,0.53
2023-02-18T12:42:37.943Z,0.52
2023-02-18T12:43:37.951Z,0.52
2023-02-18T12:44:37.976Z,0.53
2023-02-18T12:45:38.001Z,0.53
2023-02-18T12:46:40.736Z,0.52
2023-02-18T12:47:37.989Z,0.53
2023-02-18T12:48:37.974Z,0.53
2023-02-18T12:49:37.939Z,0.53
2023-02-18T12:50:37.901Z,0.53
2023-02-18T12:51:37.864Z,0.52
2023-02-18T12:52:37.831Z,0.53
2023-02-18T13:00:38.240Z,0.54
2023-02-18T13:03:38.251Z,0.54
2023-02-18T13:46:38.252Z,0.53
2023-02-18T14:26:38.267Z,0.53
2023-02-18T14:35:37.800Z,0.54
2023-02-18T14:36:37.821Z,0.54
2023-02-18T14:37:37.840Z,0.55
2023-02-18T14:38:37.869Z,0.55
2023-02-18T14:39:37.903Z,0.55
2023-02-18T14:40:37.938Z,0.53
2023-02-18T14:41:37.961Z,0.54
2023-02-18T14:42:37.979Z,0.55
2023-02-18T14:43:38.007Z,0.55
2023-02-18T14:44:38.040Z,0.54
2023-02-18T14:45:38.069Z,0.54
2023-02-18T14:46:38.172Z,0.55
2023-02-18T14:47:38.133Z,0.55
2023-02-18T14:48:38.171Z,0.55
2023-02-18T14:49:38.210Z,0.54
2023-02-18T14:50:38.235Z,0.55
2023-02-18T14:51:38.268Z,0.54
2023-02-18T14:52:38.367Z,0.54
2023-02-18T14:53:38.353Z,0.55
2023-02-18T14:54:38.387Z,0.56
2023-02-18T14:55:38.426Z,0.55
2023-02-18T14:56:38.469Z,0.55
2023-02-18T14:57:38.510Z,0.54
2023-02-18T14:58:38.561Z,0.55
2023-02-18T14:59:38.607Z,0.55
2023-02-18T15:00:38.721Z,0.54
2023-02-18T15:01:38.700Z,0.55
2023-02-18T15:02:38.825Z,0.55
2023-02-18T15:03:38.712Z,0.53
2023-02-18T15:04:38.722Z,0.55
2023-02-18T15:28:39.160Z,0.56
2023-02-18T15:29:39.177Z,0.56
2023-02-18T15:30:39.193Z,0.58
2023-02-18T15:31:39.287Z,0.56
2023-02-18T15:32:39.145Z,0.57
2023-02-18T15:33:39.139Z,0.56
2023-02-18T15:34:39.128Z,0.56
2023-02-18T15:35:39.790Z,0.57
2023-02-18T15:36:39.129Z,0.58
2023-02-18T15:37:39.116Z,0.56
2023-02-18T15:38:39.190Z,0.56
2023-02-18T15:39:39.096Z,0.57
2023-02-18T15:40:39.078Z,0.57
2023-02-18T15:41:39.067Z,0.58
2023-02-18T15:42:39.042Z,0.57
2023-02-18T15:43:39.036Z,0.57
2023-02-18T15:44:39.030Z,0.58
2023-02-18T15:45:39.033Z,0.58
2023-02-18T15:46:39.045Z,0.58
2023-02-18T15:47:39.009Z,0.58
2023-02-18T15:48:38.992Z,0.58
2023-02-18T15:49:39.006Z,0.59
2023-02-18T15:50:39.006Z,0.58
2023-02-18T15:51:38.989Z,0.57
2023-02-18T15:52:38.986Z,0.58
2023-02-18T15:53:38.993Z,0.58
2023-02-18T15:54:38.985Z,0.58
2023-02-18T15:55:38.979Z,0.57
2023-02-18T15:56:38.992Z,0.57
2023-02-18T15:57:38.982Z,0.58
2023-02-18T15:58:38.975Z,0.58
2023-02-18T15:59:38.981Z,0.58
2023-02-18T16:00:39.820Z,0.57
2023-02-18T16:01:39.014Z,0.59
2023-02-18T16:02:38.981Z,0.59
2023-02-18T16:03:38.986Z,0.59
2023-02-18T16:04:38.986Z,0.59
2023-02-18T16:05:38.990Z,0.57
2023-02-18T16:06:39.019Z,0.58
2023-02-18T16:07:39.010Z,0.60
2023-02-18T16:08:39.020Z,0.58
2023-02-18T16:09:39.035Z,0.59
2023-02-18T16:10:39.026Z,0.58
2023-02-18T16:11:39.053Z,0.59
2023-02-18T16:12:39.050Z,0.58
2023-02-18T16:13:39.073Z,0.59
2023-02-18T16:14:40.170Z,0.58
2023-02-18T16:15:39.814Z,0.59
2023-02-18T16:16:39.209Z,0.59
2023-02-18T16:17:39.172Z,0.60
2023-02-18T16:18:39.145Z,0.58
2023-02-18T16:19:39.175Z,0.60
2023-02-18T16:20:39.180Z,0.59
2023-02-18T16:21:39.184Z,0.58
2023-02-18T16:22:39.225Z,0.61
2023-02-18T16:23:39.887Z,0.59
2023-02-18T16:24:39.276Z,0.59
2023-02-18T16:25:39.283Z,0.60
2023-02-18T16:26:39.328Z,0.59
2023-02-18T16:27:39.354Z,0.57
2023-02-18T16:28:39.362Z,0.59
2023-02-18T16:29:39.388Z,0.58
2023-02-18T16:30:39.416Z,0.58
2023-02-18T16:31:39.523Z,0.59
2023-02-18T16:32:39.462Z,0.59
2023-02-18T16:33:39.480Z,0.59
2023-02-18T16:34:39.510Z,0.58
2023-02-18T16:35:49.671Z,0.59
2023-02-18T16:36:40.533Z,0.59
2023-02-18T16:37:39.528Z,0.59
2023-02-18T16:38:39.523Z,0.59
2023-02-18T16:40:39.561Z,0.60
2023-02-18T16:41:39.482Z,0.60
2023-02-18T16:42:40.383Z,0.59
2023-02-18T16:43:39.469Z,0.59
2023-02-18T16:44:39.453Z,0.60
2023-02-18T17:24:40.610Z,0.60
2023-02-18T18:56:45.431Z,0.60
2023-02-18T18:57:47.225Z,0.58
2023-02-18T18:58:45.489Z,0.59
2023-02-18T18:59:45.495Z,0.59
2023-02-18T19:00:45.506Z,0.59
2023-02-18T19:01:45.451Z,0.59
2023-02-18T19:02:45.430Z,0.59
2023-02-18T19:03:45.424Z,0.59
2023-02-18T19:04:45.417Z,0.58
2023-02-18T19:05:45.409Z,0.59
2023-02-18T19:06:45.432Z,0.59
2023-02-18T19:07:45.481Z,0.59
2023-02-18T19:08:45.400Z,0.59
2023-02-18T19:09:45.395Z,0.59
2023-02-18T19:10:45.392Z,0.59
2023-02-18T19:11:45.402Z,0.59
2023-02-18T19:12:45.388Z,0.58
2023-02-18T19:13:45.398Z,0.58
2023-02-18T19:14:45.398Z,0.58
2023-02-18T19:15:45.414Z,0.57
2023-02-18T19:16:45.399Z,0.58
2023-02-18T19:17:45.384Z,0.59
2023-02-18T19:18:45.389Z,0.57
2023-02-18T19:19:45.383Z,0.58
2023-02-18T19:20:45.381Z,0.58
2023-02-18T19:21:45.387Z,0.58
2023-02-18T19:22:45.392Z,0.58
2023-02-18T19:23:45.386Z,0.58
2023-02-18T19:24:45.457Z,0.57
2023-02-18T19:25:45.399Z,0.57
2023-02-18T19:26:45.401Z,0.58
2023-02-18T19:27:45.391Z,0.57
2023-02-18T19:28:46.392Z,0.57
2023-02-18T19:29:45.406Z,0.58
2023-02-18T19:30:45.415Z,0.57
2023-02-18T19:31:45.544Z,0.57
2023-02-18T19:32:45.404Z,0.57
2023-02-18T19:33:45.407Z,0.56
2023-02-18T19:34:45.412Z,0.57
2023-02-18T19:35:45.423Z,0.57
2023-02-18T19:36:45.435Z,0.57
2023-02-18T19:37:45.412Z,0.57
2023-02-18T19:38:45.444Z,0.56
2023-02-18T19:39:45.439Z,0.57
2023-02-18T19:40:45.436Z,0.57
2023-02-18T19:41:45.445Z,0.56
2023-02-18T19:42:45.438Z,0.56
2023-02-18T19:43:45.447Z,0.56
2023-02-18T19:44:45.463Z,0.57
2023-02-18T19:45:45.461Z,0.56
2023-02-18T19:46:45.447Z,0.56
2023-02-18T19:47:45.442Z,0.56
2023-02-18T19:48:46.480Z,0.56
2023-02-18T19:49:45.436Z,0.56
2023-02-18T19:50:46.453Z,0.56
2023-02-18T19:51:45.450Z,0.56
2023-02-18T19:52:45.426Z,0.56
2023-02-18T19:53:45.492Z,0.56
2023-02-18T19:54:45.421Z,0.56
2023-02-18T19:55:45.418Z,0.56
2023-02-18T19:56:45.422Z,0.56
2023-02-18T19:57:45.413Z,0.57
2023-02-18T19:58:45.419Z,0.56
2023-02-18T19:59:45.422Z,0.56
2023-02-18T20:00:45.422Z,0.55
2023-02-18T20:01:45.440Z,0.56
2023-02-18T20:02:45.439Z,0.55
2023-02-18T20:03:45.430Z,0.55
2023-02-18T20:04:45.411Z,0.56
2023-02-18T20:05:45.422Z,0.55
2023-02-18T20:06:45.407Z,0.56
2023-02-18T20:07:45.404Z,0.56
2023-02-18T20:08:45.407Z,0.55
2023-02-18T20:09:45.405Z,0.55
2023-02-18T20:10:45.410Z,0.55
2023-02-18T20:11:45.414Z,0.55
2023-02-18T20:12:45.405Z,0.56
2023-02-18T20:13:45.405Z,0.56
2023-02-18T20:14:45.404Z,0.56
2023-02-18T20:15:45.421Z,0.56
2023-02-18T20:16:45.424Z,0.56
2023-02-18T20:17:45.414Z,0.55
2023-02-18T20:18:45.418Z,0.55
2023-02-18T20:19:45.436Z,0.55
2023-02-18T20:20:45.419Z,0.56
2023-02-18T20:21:45.447Z,0.55
2023-02-18T20:22:45.425Z,0.55
2023-02-18T20:23:45.434Z,0.55
2023-02-18T20:24:45.444Z,0.55
2023-02-18T20:25:45.451Z,0.55
2023-02-18T20:26:45.455Z,0.55
2023-02-18T20:27:59.966Z,0.55
2023-02-18T20:28:46.446Z,0.55
2023-02-18T20:29:45.449Z,0.55
2023-02-18T20:30:45.435Z,0.55
2023-02-18T20:31:45.568Z,0.55
2023-02-18T20:32:45.416Z,0.55
2023-02-18T20:33:45.410Z,0.55
2023-02-18T20:34:45.407Z,0.55
2023-02-18T20:35:45.397Z,0.55
2023-02-18T20:36:45.387Z,0.55
2023-02-18T20:37:45.380Z,0.55
2023-02-18T20:38:45.380Z,0.54
2023-02-18T20:39:45.358Z,0.55
2023-02-18T20:40:45.355Z,0.55
2023-02-18T20:41:45.354Z,0.55
2023-02-18T20:42:45.456Z,0.54
2023-02-18T20:43:45.368Z,0.54
2023-02-18T20:44:45.359Z,0.54
2023-02-18T20:45:45.340Z,0.54
2023-02-18T20:46:45.396Z,0.54
2023-02-18T20:47:45.332Z,0.54
2023-02-18T20:48:45.338Z,0.54
2023-02-18T20:49:45.325Z,0.54
2023-02-18T20:50:45.322Z,0.54
2023-02-18T20:51:45.309Z,0.54
2023-02-18T20:52:45.311Z,0.54
2023-02-18T20:53:45.307Z,0.54
2023-02-18T20:54:45.298Z,0.53
2023-02-18T20:55:45.301Z,0.53
2023-02-18T20:56:45.307Z,0.54
2023-02-18T20:57:45.286Z,0.54
2023-02-18T20:58:45.280Z,0.54
2023-02-18T20:59:45.284Z,0.53
2023-02-18T21:00:45.263Z,0.53
2023-02-18T21:01:45.343Z,0.53
2023-02-18T21:02:45.285Z,0.53
2023-02-18T21:03:45.238Z,0.54
2023-02-18T21:04:45.258Z,0.53
2023-02-18T21:05:45.239Z,0.53
2023-02-18T21:06:45.230Z,0.53
2023-02-18T21:07:45.232Z,0.54
2023-02-18T21:08:45.218Z,0.53
2023-02-18T21:09:45.224Z,0.53
2023-02-18T21:10:45.212Z,0.52
2023-02-18T21:11:45.217Z,0.53
2023-02-18T21:12:45.207Z,0.53
2023-02-18T21:13:45.231Z,0.53
2023-02-18T21:14:45.220Z,0.52
2023-02-18T21:15:45.356Z,0.52
2023-02-18T21:16:45.319Z,0.52
2023-02-18T21:17:45.249Z,0.52
2023-02-18T21:18:45.259Z,0.52
2023-02-18T21:19:45.270Z,0.53
2023-02-18T21:20:45.292Z,0.52
2023-02-18T21:21:45.288Z,0.52
2023-02-18T21:22:45.299Z,0.52
2023-02-18T21:23:45.314Z,0.53
2023-02-18T21:24:45.300Z,0.52
2023-02-18T21:25:45.309Z,0.52
2023-02-18T21:26:45.379Z,0.52
2023-02-18T21:27:45.385Z,0.52
2023-02-18T21:28:45.338Z,0.52
2023-02-18T21:29:45.343Z,0.52
2023-02-18T21:30:45.364Z,0.52
2023-02-18T21:31:45.478Z,0.52
2023-02-18T21:32:45.385Z,0.52
2023-02-18T21:33:45.394Z,0.51
2023-02-18T21:34:45.398Z,0.52
2023-02-18T21:35:45.408Z,0.52
2023-02-18T21:36:45.428Z,0.51
2023-02-18T21:37:45.432Z,0.52